createdAt,value
2018-03-24T00:00:33.998Z,29.10
2018-03-24T00:03:01.758Z,28.30
2018-03-24T00:05:29.588Z,28.57
2018-03-24T00:07:58.119Z,28.53
2018-03-24T00:10:25.876Z,28.93
2018-03-24T00:12:53.841Z,29.43
2018-03-24T00:15:21.552Z,29.63
2018-03-24T00:17:49.352Z,29.80
2018-03-24T00:20:17.200Z,29.77
2018-03-24T00:22:44.968Z,28.30
2018-03-24T00:25:12.845Z,29.27
2018-03-24T00:27:40.758Z,29.30
2018-03-24T00:30:08.643Z,29.57
2018-03-24T00:32:36.591Z,29.87
2018-03-24T00:35:04.662Z,29.70
2018-03-24T00:37:32.457Z,30.47
2018-03-24T00:40:00.294Z,30.43
2018-03-24T00:42:28.026Z,29.43
2018-03-24T00:44:55.673Z,29.80
2018-03-24T00:47:24.158Z,29.67
2018-03-24T00:49:52.438Z,30.03
2018-03-24T00:52:20.130Z,29.53
2018-03-24T00:54:47.786Z,29.67
2018-03-24T00:57:15.757Z,30.73
2018-03-24T00:59:43.638Z,30.07
2018-03-24T01:02:11.396Z,29.13
2018-03-24T01:04:40.533Z,30.20
2018-03-24T01:07:08.338Z,29.23
2018-03-24T01:09:36.263Z,29.80
2018-03-24T01:12:04.103Z,30.70
2018-03-24T01:14:31.827Z,30.10
2018-03-24T01:17:00.494Z,30.83
2018-03-24T01:19:28.304Z,32.23
2018-03-24T01:21:55.997Z,30.67
2018-03-24T01:24:23.707Z,31.50
2018-03-24T01:26:51.429Z,32.07
2018-03-24T01:29:19.332Z,31.27
2018-03-24T01:31:48.208Z,31.00
2018-03-24T01:34:16.076Z,30.63
2018-03-24T01:36:43.958Z,28.70
2018-03-24T01:39:11.835Z,31.67
2018-03-24T01:41:40.269Z,31.20
2018-03-24T01:44:08.579Z,30.77
2018-03-24T01:46:38.286Z,30.80
2018-03-24T01:49:06.930Z,31.57
2018-03-24T01:51:35.067Z,30.13
2018-03-24T01:54:03.668Z,31.07
2018-03-24T01:56:31.554Z,32.20
2018-03-24T01:58:59.316Z,31.77
2018-03-24T02:01:27.269Z,32.67
2018-03-24T02:03:55.172Z,31.87
2018-03-24T02:06:23.077Z,31.30
2018-03-24T02:08:50.935Z,31.10
2018-03-24T02:11:19.556Z,31.83
2018-03-24T02:13:47.432Z,31.63
2018-03-24T02:16:15.247Z,30.20
2018-03-24T02:18:43.189Z,33.23
2018-03-24T02:21:12.867Z,32.37
2018-03-24T02:23:40.853Z,30.73
2018-03-24T02:26:08.716Z,31.33
2018-03-24T02:28:36.698Z,30.77
2018-03-24T02:31:04.606Z,33.50
2018-03-24T02:33:32.609Z,31.10
2018-03-24T02:36:00.500Z,33.37
2018-03-24T02:38:28.190Z,33.33
2018-03-24T02:40:56.059Z,31.73
2018-03-24T02:43:23.917Z,30.83
2018-03-24T02:45:51.758Z,35.00
2018-03-24T02:48:19.628Z,34.47
2018-03-24T02:50:47.539Z,32.70
2018-03-24T02:53:15.500Z,31.57
2018-03-24T02:55:43.376Z,32.17
2018-03-24T02:58:11.403Z,32.17
2018-03-24T03:00:39.279Z,34.03
2018-03-24T03:03:07.149Z,34.37
2018-03-24T03:05:35.047Z,34.77
2018-03-24T03:08:02.894Z,34.47
2018-03-24T03:10:30.834Z,33.90
2018-03-24T03:12:58.625Z,33.73
2018-03-24T03:15:27.265Z,34.27
2018-03-24T03:17:55.111Z,35.50
2018-03-24T03:20:23.779Z,35.53
2018-03-24T03:22:51.691Z,36.60
2018-03-24T03:25:19.469Z,39.13
2018-03-24T03:27:47.209Z,37.33
2018-03-24T03:30:34.748Z,37.20
2018-03-24T03:33:02.758Z,39.93
2018-03-24T03:35:30.709Z,39.00
2018-03-24T03:37:58.567Z,43.93
2018-03-24T03:40:26.350Z,43.57
2018-03-24T03:42:54.343Z,45.40
2018-03-24T03:45:22.155Z,42.00
2018-03-24T03:47:50.070Z,45.63
2018-03-24T03:50:17.891Z,44.43
2018-03-24T03:52:45.730Z,45.93
2018-03-24T03:55:14.349Z,44.07
2018-03-24T03:57:42.265Z,47.60
2018-03-24T04:00:12.600Z,46.37
2018-03-24T04:02:40.591Z,47.03
2018-03-24T04:05:08.317Z,46.03
2018-03-24T04:07:36.059Z,46.80
2018-03-24T04:10:04.049Z,47.10
2018-03-24T04:12:32.659Z,45.37
2018-03-24T04:15:00.585Z,48.20
2018-03-24T04:17:28.471Z,44.77
2018-03-24T04:19:56.069Z,47.37
2018-03-24T04:22:23.889Z,48.43
2018-03-24T04:24:51.769Z,45.63
2018-03-24T04:27:19.617Z,48.27
2018-03-24T04:29:47.380Z,47.93
2018-03-24T04:32:15.304Z,47.03
2018-03-24T04:34:43.273Z,46.00
2018-03-24T04:37:11.343Z,47.83
2018-03-24T04:39:40.049Z,47.20
2018-03-24T04:42:08.111Z,49.33
2018-03-24T04:44:36.049Z,48.23
2018-03-24T04:47:04.635Z,48.07
2018-03-24T04:49:32.395Z,48.70
2018-03-24T04:52:00.483Z,48.63
2018-03-24T04:54:28.445Z,50.33
2018-03-24T04:56:56.300Z,47.13
2018-03-24T04:59:24.905Z,46.90
2018-03-24T05:01:53.641Z,47.87
2018-03-24T05:04:22.391Z,48.50
2018-03-24T05:06:50.328Z,46.43
2018-03-24T05:09:18.291Z,48.07
2018-03-24T05:11:46.071Z,46.87
2018-03-24T05:14:13.937Z,48.23
2018-03-24T05:16:41.791Z,48.40
2018-03-24T05:19:09.697Z,50.40
2018-03-24T05:21:38.348Z,49.10
2018-03-24T05:24:07.141Z,46.93
2018-03-24T05:26:35.849Z,49.37
2018-03-24T05:29:03.737Z,50.07
2018-03-24T05:31:31.529Z,49.17
2018-03-24T05:33:59.521Z,49.90
2018-03-24T05:36:27.379Z,50.30
2018-03-24T05:38:55.202Z,49.43
2018-03-24T05:41:22.995Z,50.70
2018-03-24T05:43:50.915Z,50.03
2018-03-24T05:46:18.812Z,48.37
2018-03-24T05:48:47.560Z,51.17
2018-03-24T05:51:16.373Z,50.93
2018-03-24T05:53:44.355Z,49.00
2018-03-24T05:56:12.338Z,46.30
2018-03-24T05:58:40.253Z,50.47
2018-03-24T06:01:08.784Z,50.57
2018-03-24T06:03:36.641Z,50.90
2018-03-24T06:06:04.508Z,50.13
2018-03-24T06:08:32.437Z,50.30
2018-03-24T06:11:00.299Z,50.00
2018-03-24T06:13:28.214Z,49.37
2018-03-24T06:15:56.200Z,52.47
2018-03-24T06:18:24.041Z,53.73
2018-03-24T06:20:51.729Z,53.00
2018-03-24T06:23:19.460Z,51.47
2018-03-24T06:25:48.837Z,51.83
2018-03-24T06:28:16.799Z,50.73
2018-03-24T06:30:48.265Z,53.77
2018-03-24T06:33:16.315Z,55.87
2018-03-24T06:35:44.923Z,56.87
2018-03-24T06:38:12.896Z,54.20
2018-03-24T06:40:40.841Z,52.93
2018-03-24T06:43:08.775Z,56.03
2018-03-24T06:45:36.517Z,54.03
2018-03-24T06:48:04.339Z,54.23
2018-03-24T06:50:32.978Z,56.07
2018-03-24T06:53:00.951Z,54.87
2018-03-24T06:55:28.897Z,57.37
2018-03-24T06:57:56.804Z,57.40
2018-03-24T07:00:25.215Z,55.83
2018-03-24T07:02:53.136Z,57.77
2018-03-24T07:05:20.966Z,55.03
2018-03-24T07:07:49.651Z,53.93
2018-03-24T07:10:17.621Z,55.40
2018-03-24T07:12:45.560Z,53.30
2018-03-24T07:15:13.335Z,54.77
2018-03-24T07:17:42.095Z,55.30
2018-03-24T07:20:10.850Z,55.10
2018-03-24T07:22:40.856Z,55.37
2018-03-24T07:25:08.879Z,55.73
2018-03-24T07:27:37.647Z,55.00
2018-03-24T07:30:05.624Z,56.43
2018-03-24T07:32:33.719Z,55.63
2018-03-24T07:35:02.424Z,56.40
2018-03-24T07:37:31.176Z,55.27
2018-03-24T07:40:00.124Z,54.20
2018-03-24T07:42:27.797Z,52.60
2018-03-24T07:44:55.653Z,54.60
2018-03-24T07:47:28.120Z,53.73
2018-03-24T07:49:56.798Z,54.03
2018-03-24T07:52:25.436Z,53.97
2018-03-24T07:54:53.253Z,54.73
2018-03-24T07:57:20.982Z,50.50
2018-03-24T07:59:48.793Z,50.00
2018-03-24T08:02:16.688Z,52.50
2018-03-24T08:04:44.420Z,54.03
2018-03-24T08:07:12.273Z,50.83
2018-03-24T08:09:40.394Z,45.87
2018-03-24T08:12:08.247Z,46.87
2018-03-24T08:14:36.171Z,48.23
2018-03-24T08:17:05.086Z,44.27
2018-03-24T08:19:33.045Z,46.93
2018-03-24T08:22:01.003Z,49.27
2018-03-24T08:24:30.363Z,49.07
2018-03-24T08:26:58.333Z,46.50
2018-03-24T08:29:26.368Z,47.17
2018-03-24T08:31:54.204Z,45.80
2018-03-24T08:34:26.330Z,46.43
2018-03-24T08:36:54.236Z,46.73
2018-03-24T08:39:23.802Z,48.47
2018-03-24T08:41:51.679Z,47.53
2018-03-24T08:44:19.580Z,47.37
2018-03-24T08:46:48.412Z,48.27
2018-03-24T08:49:16.267Z,47.00
2018-03-24T08:51:44.189Z,46.60
2018-03-24T08:54:12.227Z,45.97
2018-03-24T08:56:40.430Z,46.37
2018-03-24T08:59:08.390Z,48.03
2018-03-24T09:01:36.115Z,45.83
2018-03-24T09:04:03.938Z,46.23
2018-03-24T09:06:31.833Z,46.33
2018-03-24T09:08:59.631Z,49.57
2018-03-24T09:11:27.591Z,47.37
2018-03-24T09:13:55.985Z,45.47
2018-03-24T09:16:23.869Z,47.50
2018-03-24T09:18:51.733Z,47.50
2018-03-24T09:21:19.520Z,46.67
2018-03-24T09:23:47.186Z,48.07
2018-03-24T09:26:15.045Z,47.20
2018-03-24T09:28:43.551Z,44.90
2018-03-24T09:31:12.191Z,48.00
2018-03-24T09:33:39.945Z,45.90
2018-03-24T09:36:07.974Z,42.20
2018-03-24T09:38:35.875Z,39.50
2018-03-24T09:41:03.709Z,38.57
2018-03-24T09:43:32.157Z,39.33
2018-03-24T09:46:00.125Z,43.10
2018-03-24T09:48:27.795Z,41.53
2018-03-24T09:50:55.597Z,37.90
2018-03-24T09:53:23.283Z,37.47
2018-03-24T09:55:51.139Z,35.63
2018-03-24T09:58:19.005Z,32.27
2018-03-24T10:00:46.793Z,33.13
2018-03-24T10:03:14.834Z,38.83
2018-03-24T10:05:42.678Z,37.93
2018-03-24T10:08:10.714Z,37.20
2018-03-24T10:10:38.483Z,34.23
2018-03-24T10:13:06.310Z,36.77
2018-03-24T10:15:34.340Z,35.40
2018-03-24T10:18:02.581Z,33.77
2018-03-24T10:20:41.881Z,34.33
2018-03-24T10:23:15.428Z,25.97
2018-03-24T10:25:44.077Z,25.27
2018-03-24T10:28:11.936Z,25.53
2018-03-24T10:30:39.847Z,20.97
2018-03-24T10:33:07.863Z,20.97
2018-03-24T10:35:35.835Z,16.97
2018-03-24T10:38:04.552Z,16.73
2018-03-24T10:40:32.381Z,16.80
2018-03-24T10:43:05.754Z,17.67
2018-03-24T10:45:34.328Z,17.23
2018-03-24T10:48:02.167Z,15.20
2018-03-24T10:50:30.189Z,16.43
2018-03-24T10:52:59.294Z,15.77
2018-03-24T10:55:27.306Z,15.87
2018-03-24T10:57:55.188Z,17.57
2018-03-24T11:00:28.747Z,18.73
2018-03-24T11:02:57.012Z,16.83
2018-03-24T11:05:24.929Z,15.73
2018-03-24T11:07:52.825Z,15.07
2018-03-24T11:10:20.697Z,14.90
2018-03-24T11:12:48.429Z,15.23
2018-03-24T11:15:16.241Z,13.97
2018-03-24T11:17:44.101Z,15.67
2018-03-24T11:20:12.076Z,14.37
2018-03-24T11:22:39.983Z,15.10
2018-03-24T11:25:07.796Z,13.33
2018-03-24T11:27:35.685Z,13.13
2018-03-24T11:30:04.639Z,12.07
2018-03-24T11:32:32.512Z,13.80
2018-03-24T11:35:00.426Z,13.53
2018-03-24T11:37:28.256Z,12.50
2018-03-24T11:39:57.053Z,11.93
2018-03-24T11:42:24.987Z,12.90
2018-03-24T11:44:52.895Z,12.30
2018-03-24T11:47:21.594Z,11.13
2018-03-24T11:49:50.182Z,11.57
2018-03-24T11:52:18.231Z,10.73
2018-03-24T11:54:46.837Z,11.77
2018-03-24T11:57:14.822Z,10.37
2018-03-24T11:59:42.796Z,9.63
2018-03-24T12:02:10.888Z,9.07
2018-03-24T12:04:38.954Z,9.27
2018-03-24T12:07:06.930Z,11.60
2018-03-24T12:09:35.925Z,11.73
2018-03-24T12:12:03.729Z,12.60
2018-03-24T12:14:31.485Z,10.67
2018-03-24T12:16:59.260Z,11.53
2018-03-24T12:19:27.104Z,10.63
2018-03-24T12:21:54.813Z,10.13
2018-03-24T12:24:22.700Z,8.40
2018-03-24T12:26:50.874Z,17.07
2018-03-24T12:29:18.660Z,13.83
2018-03-24T12:31:47.088Z,12.00
2018-03-24T12:34:14.803Z,10.03
2018-03-24T12:36:42.456Z,11.90
2018-03-24T12:39:16.639Z,14.07
2018-03-24T12:41:45.828Z,13.77
2018-03-24T12:44:14.775Z,13.67
2018-03-24T12:46:42.628Z,12.63
2018-03-24T12:49:11.300Z,11.90
2018-03-24T12:51:39.726Z,12.43
2018-03-24T12:54:08.688Z,13.13
2018-03-24T12:56:36.542Z,13.53
2018-03-24T12:59:05.038Z,13.80
2018-03-24T13:01:32.742Z,13.30
2018-03-24T13:04:01.534Z,13.17
2018-03-24T13:06:29.406Z,13.03
2018-03-24T13:08:57.254Z,19.07
2018-03-24T13:11:25.228Z,13.70
2018-03-24T13:13:57.612Z,13.37
2018-03-24T13:16:26.286Z,13.47
2018-03-24T13:18:54.845Z,13.53
2018-03-24T13:21:23.082Z,13.47
2018-03-24T13:23:51.505Z,13.03
2018-03-24T13:26:19.230Z,12.67
2018-03-24T13:28:46.993Z,11.77
2018-03-24T13:31:14.660Z,14.87
2018-03-24T13:33:42.418Z,12.30
2018-03-24T13:36:10.156Z,13.07
2018-03-24T13:38:37.854Z,12.67
2018-03-24T13:41:05.506Z,12.33
2018-03-24T13:43:33.077Z,13.07
2018-03-24T13:46:00.666Z,12.00
2018-03-24T13:48:28.240Z,11.33
2018-03-24T13:50:56.092Z,12.70
2018-03-24T13:53:23.745Z,13.10
2018-03-24T13:55:51.508Z,11.97
2018-03-24T13:58:19.250Z,12.33
2018-03-24T14:00:47.099Z,12.73
2018-03-24T14:03:14.806Z,12.67
2018-03-24T14:05:42.562Z,12.67
2018-03-24T14:08:10.222Z,13.20
2018-03-24T14:10:38.032Z,13.93
2018-03-24T14:13:06.606Z,12.93
2018-03-24T14:15:34.308Z,12.40
2018-03-24T14:18:01.976Z,13.63
2018-03-24T14:20:29.655Z,14.83
2018-03-24T14:22:57.392Z,12.90
2018-03-24T14:25:25.189Z,14.83
2018-03-24T14:27:53.020Z,12.47
2018-03-24T14:30:20.920Z,13.73
2018-03-24T14:32:48.936Z,15.13
2018-03-24T14:35:19.209Z,13.63
2018-03-24T14:37:51.377Z,12.63
2018-03-24T14:40:19.161Z,13.33
2018-03-24T14:42:46.774Z,13.20
2018-03-24T14:45:15.151Z,14.73
2018-03-24T14:47:43.536Z,13.57
2018-03-24T14:50:11.229Z,13.27
2018-03-24T14:52:38.936Z,13.57
2018-03-24T14:55:06.894Z,12.67
2018-03-24T14:57:35.554Z,13.23
2018-03-24T15:00:03.944Z,14.07
2018-03-24T15:02:31.775Z,12.57
2018-03-24T15:04:59.714Z,12.87
2018-03-24T15:07:28.080Z,15.63
2018-03-24T15:09:56.042Z,15.40
2018-03-24T15:12:24.560Z,18.77
2018-03-24T15:14:52.266Z,16.93
2018-03-24T15:17:20.008Z,15.20
2018-03-24T15:19:47.984Z,16.17
2018-03-24T15:22:15.994Z,16.37
2018-03-24T15:24:44.142Z,17.17
2018-03-24T15:27:11.988Z,16.70
2018-03-24T15:29:51.584Z,17.93
2018-03-24T15:32:31.046Z,16.80
2018-03-24T15:35:10.320Z,17.30
2018-03-24T15:37:38.016Z,16.60
2018-03-24T15:40:06.498Z,18.20
2018-03-24T15:42:34.210Z,18.07
2018-03-24T15:45:02.624Z,18.17
2018-03-24T15:47:30.236Z,15.67
2018-03-24T15:49:57.941Z,14.57
2018-03-24T15:52:25.484Z,15.90
2018-03-24T15:54:53.132Z,16.70
2018-03-24T15:57:20.762Z,18.23
2018-03-24T15:59:48.589Z,16.03
2018-03-24T16:02:17.009Z,16.67
2018-03-24T16:04:44.772Z,15.83
2018-03-24T16:07:12.496Z,15.23
2018-03-24T16:09:41.290Z,15.93
2018-03-24T16:12:08.903Z,15.97
2018-03-24T16:14:36.571Z,15.83
2018-03-24T16:17:04.304Z,15.97
2018-03-24T16:19:31.911Z,15.10
2018-03-24T16:21:59.729Z,16.03
2018-03-24T16:24:27.304Z,16.50
2018-03-24T16:26:54.906Z,21.40
2018-03-24T16:29:22.718Z,20.60
2018-03-24T16:31:50.574Z,31.40
2018-03-24T16:34:18.245Z,18.63
2018-03-24T16:36:46.728Z,18.50
2018-03-24T16:39:14.541Z,17.20
2018-03-24T16:41:42.360Z,19.03
2018-03-24T16:44:10.906Z,18.40
2018-03-24T16:46:38.694Z,18.10
2018-03-24T16:49:06.526Z,18.07
2018-03-24T16:51:34.388Z,17.33
2018-03-24T16:54:02.182Z,19.03
2018-03-24T16:56:30.012Z,18.03
2018-03-24T16:58:57.827Z,18.70
2018-03-24T17:01:25.676Z,17.93
2018-03-24T17:03:53.272Z,17.40
2018-03-24T17:06:21.763Z,18.43
2018-03-24T17:08:49.481Z,18.00
2018-03-24T17:11:17.327Z,17.70
2018-03-24T17:13:45.188Z,18.40
2018-03-24T17:16:13.170Z,17.57
2018-03-24T17:18:41.030Z,19.90
2018-03-24T17:21:08.900Z,18.57
2018-03-24T17:23:36.788Z,18.87
2018-03-24T17:26:04.744Z,18.07
2018-03-24T17:28:32.574Z,18.20
2018-03-24T17:31:00.558Z,17.87
2018-03-24T17:33:28.318Z,18.33
2018-03-24T17:35:56.103Z,18.13
2018-03-24T17:38:23.809Z,17.00
2018-03-24T17:40:52.416Z,19.63
2018-03-24T17:43:20.232Z,20.50
2018-03-24T17:45:49.024Z,18.27
2018-03-24T17:48:17.066Z,18.43
2018-03-24T17:50:46.641Z,19.03
2018-03-24T17:53:14.582Z,17.90
2018-03-24T17:55:42.689Z,17.77
2018-03-24T17:58:10.566Z,18.60
2018-03-24T18:00:38.452Z,17.43
2018-03-24T18:03:06.338Z,15.77
2018-03-24T18:05:34.187Z,17.40
2018-03-24T18:08:02.161Z,17.47
2018-03-24T18:10:30.016Z,16.33
2018-03-24T18:12:57.923Z,26.33
2018-03-24T18:15:25.726Z,23.73
2018-03-24T18:17:53.728Z,21.40
2018-03-24T18:20:22.671Z,18.73
2018-03-24T18:22:50.890Z,18.87
2018-03-24T18:25:18.765Z,18.60
2018-03-24T18:27:46.680Z,18.77
2018-03-24T18:30:14.750Z,19.50
2018-03-24T18:32:42.732Z,19.07
2018-03-24T18:35:10.661Z,20.70
2018-03-24T18:37:38.711Z,19.53
2018-03-24T18:40:06.554Z,20.67
2018-03-24T18:42:34.508Z,32.43
2018-03-24T18:45:02.467Z,20.70
2018-03-24T18:47:30.258Z,20.40
2018-03-24T18:49:58.155Z,20.93
2018-03-24T18:52:26.037Z,19.17
2018-03-24T18:54:53.940Z,20.43
2018-03-24T18:57:22.110Z,19.27
2018-03-24T18:59:50.851Z,24.03
2018-03-24T19:02:18.859Z,19.80
2018-03-24T19:04:46.766Z,20.23
2018-03-24T19:07:14.736Z,20.90
2018-03-24T19:09:42.631Z,19.27
2018-03-24T19:12:10.522Z,21.60
2018-03-24T19:14:39.350Z,21.93
2018-03-24T19:17:07.368Z,21.30
2018-03-24T19:19:35.238Z,21.70
2018-03-24T19:22:03.481Z,22.50
2018-03-24T19:24:31.682Z,20.77
2018-03-24T19:26:59.918Z,22.57
2018-03-24T19:29:27.705Z,22.53
2018-03-24T19:31:55.524Z,21.83
2018-03-24T19:34:23.574Z,23.20
2018-03-24T19:36:51.596Z,24.83
2018-03-24T19:39:19.359Z,23.50
2018-03-24T19:41:47.460Z,22.17
2018-03-24T19:44:17.130Z,22.73
2018-03-24T19:46:44.960Z,22.57
2018-03-24T19:49:12.695Z,23.90
2018-03-24T19:51:40.580Z,23.67
2018-03-24T19:54:08.277Z,24.50
2018-03-24T19:56:37.042Z,24.30
2018-03-24T19:59:04.794Z,25.00
2018-03-24T20:01:32.706Z,25.33
2018-03-24T20:04:00.601Z,24.20
2018-03-24T20:06:28.404Z,22.73
2018-03-24T20:08:58.613Z,26.53
2018-03-24T20:11:26.415Z,24.50
2018-03-24T20:13:54.204Z,25.43
2018-03-24T20:16:23.022Z,24.60
2018-03-24T20:18:51.868Z,26.03
2018-03-24T20:21:19.688Z,25.17
2018-03-24T20:23:47.496Z,26.17
2018-03-24T20:26:15.371Z,26.10
2018-03-24T20:28:43.241Z,24.50
2018-03-24T20:31:11.161Z,24.33
2018-03-24T20:33:39.038Z,25.13
2018-03-24T20:36:06.970Z,25.57
2018-03-24T20:38:34.763Z,25.17
2018-03-24T20:41:02.605Z,25.40
2018-03-24T20:43:30.504Z,24.70
2018-03-24T20:45:58.446Z,24.20
2018-03-24T20:48:26.496Z,24.90
2018-03-24T20:50:54.248Z,24.53
2018-03-24T20:53:22.046Z,25.60
2018-03-24T20:55:49.942Z,25.13
2018-03-24T20:58:17.690Z,25.40
2018-03-24T21:00:45.621Z,25.30
2018-03-24T21:03:13.356Z,26.60
2018-03-24T21:05:41.280Z,26.93
2018-03-24T21:08:09.332Z,26.90
2018-03-24T21:10:37.136Z,26.20
2018-03-24T21:13:04.972Z,25.90
2018-03-24T21:15:32.710Z,25.03
2018-03-24T21:18:00.618Z,24.63
2018-03-24T21:20:28.578Z,26.23
2018-03-24T21:22:56.414Z,24.90
2018-03-24T21:25:25.106Z,25.13
2018-03-24T21:27:52.857Z,26.27
2018-03-24T21:30:20.763Z,27.23
2018-03-24T21:32:48.645Z,25.43
2018-03-24T21:35:16.638Z,25.80
2018-03-24T21:37:44.628Z,25.47
2018-03-24T21:40:12.570Z,26.70
2018-03-24T21:42:40.303Z,24.87
2018-03-24T21:45:08.106Z,25.77
2018-03-24T21:47:36.906Z,26.17
2018-03-24T21:50:04.841Z,26.10
2018-03-24T21:52:32.830Z,27.13
2018-03-24T21:55:02.137Z,23.83
2018-03-24T21:57:30.754Z,26.00
2018-03-24T21:59:58.596Z,27.13
2018-03-24T22:02:26.449Z,24.80
2018-03-24T22:04:55.098Z,25.80
2018-03-24T22:07:23.981Z,26.77
2018-03-24T22:09:52.677Z,24.73
2018-03-24T22:12:20.459Z,24.80
2018-03-24T22:14:48.242Z,24.83
2018-03-24T22:17:16.342Z,25.20
2018-03-24T22:19:44.198Z,27.47
2018-03-24T22:22:12.067Z,25.83
2018-03-24T22:24:40.076Z,24.40
2018-03-24T22:27:07.919Z,27.93
2018-03-24T22:29:35.746Z,26.63
2018-03-24T22:32:04.752Z,25.80
2018-03-24T22:34:32.671Z,25.10
2018-03-24T22:37:00.692Z,26.03
2018-03-24T22:39:28.539Z,25.27
2018-03-24T22:41:56.562Z,26.40
2018-03-24T22:44:24.494Z,24.30
2018-03-24T22:46:52.279Z,26.03
2018-03-24T22:49:19.895Z,26.27
2018-03-24T22:51:47.701Z,27.17
2018-03-24T22:54:15.288Z,26.00
2018-03-24T22:56:43.002Z,27.30
2018-03-24T22:59:10.909Z,27.07
2018-03-24T23:01:38.660Z,26.50
2018-03-24T23:04:06.579Z,27.60
2018-03-24T23:06:35.343Z,25.63
2018-03-24T23:09:02.986Z,26.87
2018-03-24T23:11:30.741Z,26.73
2018-03-24T23:13:58.741Z,26.47
2018-03-24T23:16:26.637Z,26.23
2018-03-24T23:18:55.023Z,26.00
2018-03-24T23:21:23.483Z,26.43
2018-03-24T23:23:51.328Z,25.20
2018-03-24T23:26:19.126Z,27.23
2018-03-24T23:28:46.879Z,26.77
2018-03-24T23:31:14.729Z,27.57
2018-03-24T23:33:43.456Z,25.67
2018-03-24T23:36:12.236Z,25.23
2018-03-24T23:38:40.118Z,26.37
2018-03-24T23:41:07.923Z,27.43
2018-03-24T23:43:35.806Z,26.70
2018-03-24T23:46:05.822Z,25.47
2018-03-24T23:48:33.965Z,26.37
2018-03-24T23:51:01.812Z,26.60
2018-03-24T23:53:29.672Z,26.13
2018-03-24T23:55:58.386Z,25.10
2018-03-24T23:58:26.355Z,26.17
